createdAt,value
2023-01-29T00:03:34.583Z,12.93
2023-01-29T00:07:16.572Z,11.73
2023-01-29T00:11:09.539Z,12.83
2023-01-29T00:14:51.474Z,12.73
2023-01-29T00:18:33.445Z,12.68
2023-01-29T00:22:15.559Z,13.23
2023-01-29T00:26:00.276Z,13.70
2023-01-29T00:29:42.223Z,13.98
2023-01-29T00:33:24.189Z,13.07
2023-01-29T00:37:06.481Z,12.40
2023-01-29T00:41:07.113Z,13.70
2023-01-29T00:44:57.840Z,13.98
2023-01-29T00:48:39.745Z,13.30
2023-01-29T00:52:24.341Z,12.80
2023-01-29T00:56:06.714Z,13.60
2023-01-29T00:59:48.686Z,12.57
2023-01-29T01:03:30.657Z,12.95
2023-01-29T01:11:00.335Z,13.20
2023-01-29T01:14:45.247Z,13.07
2023-01-29T01:18:30.592Z,12.15
2023-01-29T01:22:12.692Z,13.27
2023-01-29T01:25:54.667Z,12.65
2023-01-29T01:29:36.939Z,13.77
2023-01-29T01:33:18.949Z,12.63
2023-01-29T01:37:00.987Z,13.30
2023-01-29T01:40:45.393Z,13.68
2023-01-29T01:44:55.219Z,13.43
2023-01-29T01:48:37.238Z,14.23
2023-01-29T01:52:20.808Z,15.00
2023-01-29T01:56:06.892Z,13.85
2023-01-29T02:00:11.213Z,13.63
2023-01-29T02:04:18.508Z,13.23
2023-01-29T02:08:18.876Z,13.57
2023-01-29T02:12:03.102Z,13.17
2023-01-29T02:15:48.953Z,13.68
2023-01-29T02:19:59.164Z,13.52
2023-01-29T02:23:57.783Z,13.80
2023-01-29T02:27:45.642Z,13.32
2023-01-29T02:31:45.187Z,12.75
2023-01-29T02:35:46.356Z,12.23
2023-01-29T02:39:46.437Z,12.03
2023-01-29T02:43:42.036Z,11.48
2023-01-29T02:47:42.734Z,11.55
2023-01-29T02:51:33.952Z,12.30
2023-01-29T02:55:25.618Z,10.85
2023-01-29T02:59:18.676Z,12.85
2023-01-29T03:03:13.638Z,12.23
2023-01-29T03:07:01.635Z,11.45
2023-01-29T03:11:01.524Z,11.57
2023-01-29T03:15:03.062Z,12.20
2023-01-29T03:19:00.507Z,11.77
2023-01-29T03:22:46.500Z,11.02
2023-01-29T03:26:47.228Z,11.52
2023-01-29T03:30:51.610Z,10.87
2023-01-29T03:34:58.506Z,11.43
2023-01-29T03:38:40.914Z,12.13
2023-01-29T03:42:38.457Z,11.53
2023-01-29T03:47:06.931Z,11.73
2023-01-29T03:51:29.835Z,11.30
2023-01-29T03:55:36.298Z,11.77
2023-01-29T03:59:18.187Z,10.60
2023-01-29T04:03:18.935Z,11.02
2023-01-29T04:07:08.820Z,11.68
2023-01-29T04:10:53.080Z,10.73
2023-01-29T04:14:35.900Z,11.10
2023-01-29T04:18:18.007Z,11.32
2023-01-29T04:22:27.670Z,12.47
2023-01-29T04:26:27.915Z,10.75
2023-01-29T04:30:37.622Z,10.82
2023-01-29T04:34:35.660Z,11.00
2023-01-29T04:38:50.710Z,10.10
2023-01-29T04:42:43.503Z,10.00
2023-01-29T04:46:28.541Z,10.82
2023-01-29T04:50:22.628Z,10.93
2023-01-29T04:54:52.738Z,10.88
2023-01-29T04:58:34.660Z,11.15
2023-01-29T05:02:19.332Z,9.77
2023-01-29T05:06:02.705Z,10.40
2023-01-29T05:09:46.541Z,9.80
2023-01-29T05:13:31.746Z,10.43
2023-01-29T05:17:20.152Z,10.17
2023-01-29T05:21:08.132Z,10.82
2023-01-29T05:24:50.815Z,10.00
2023-01-29T05:28:33.746Z,10.40
2023-01-29T05:32:16.678Z,9.68
2023-01-29T05:36:01.811Z,9.75
2023-01-29T05:39:43.801Z,10.00
2023-01-29T05:43:26.042Z,9.75
2023-01-29T05:47:08.001Z,8.82
2023-01-29T05:50:50.344Z,9.30
2023-01-29T05:54:32.269Z,9.13
2023-01-29T05:58:14.583Z,9.02
2023-01-29T06:01:56.598Z,8.82
2023-01-29T06:05:39.336Z,9.30
2023-01-29T06:09:21.340Z,9.52
2023-01-29T06:13:03.634Z,9.73
2023-01-29T06:16:45.585Z,9.37
2023-01-29T06:20:27.578Z,9.95
2023-01-29T06:24:09.676Z,10.07
2023-01-29T06:27:52.351Z,9.07
2023-01-29T06:31:38.709Z,9.20
2023-01-29T06:35:21.179Z,9.60
2023-01-29T06:39:04.159Z,9.18
2023-01-29T06:42:46.273Z,9.60
2023-01-29T06:46:28.205Z,8.35
2023-01-29T06:50:10.955Z,9.13
2023-01-29T06:53:54.599Z,9.43
2023-01-29T06:57:36.572Z,8.48
2023-01-29T07:01:34.550Z,9.57
2023-01-29T07:05:17.530Z,9.43
2023-01-29T07:08:59.401Z,9.40
2023-01-29T07:12:41.439Z,9.82
2023-01-29T07:16:25.002Z,9.25
2023-01-29T07:20:08.236Z,8.20
2023-01-29T07:23:50.184Z,8.82
2023-01-29T07:27:32.220Z,8.25
2023-01-29T07:31:15.315Z,8.10
2023-01-29T07:34:57.737Z,8.38
2023-01-29T07:38:39.680Z,8.73
2023-01-29T07:42:21.592Z,8.20
2023-01-29T07:46:04.800Z,8.27
2023-01-29T07:49:46.811Z,7.25
2023-01-29T07:53:29.448Z,7.60
2023-01-29T07:57:11.403Z,7.77
2023-01-29T08:00:53.342Z,7.25
2023-01-29T08:04:35.328Z,6.82
2023-01-29T08:08:17.341Z,7.17
2023-01-29T08:11:59.314Z,6.82
2023-01-29T08:15:47.720Z,7.20
2023-01-29T08:19:29.675Z,6.70
2023-01-29T08:23:16.641Z,6.27
2023-01-29T08:26:58.899Z,6.35
2023-01-29T08:30:40.960Z,5.95
2023-01-29T08:34:23.072Z,6.60
2023-01-29T08:38:05.799Z,6.07
2023-01-29T08:41:47.981Z,6.25
2023-01-29T08:46:06.135Z,5.23
2023-01-29T08:50:24.412Z,5.07
2023-01-29T08:54:06.967Z,4.43
2023-01-29T08:58:12.376Z,5.03
2023-01-29T09:01:54.583Z,4.90
2023-01-29T09:09:51.143Z,4.50
2023-01-29T09:14:19.425Z,4.63
2023-01-29T09:23:03.536Z,3.80
2023-01-29T09:26:47.319Z,3.92
2023-01-29T09:30:53.695Z,3.63
2023-01-29T09:34:36.430Z,3.17
2023-01-29T09:38:49.374Z,3.30
2023-01-29T09:47:04.921Z,3.53
2023-01-29T09:51:33.221Z,3.53
2023-01-29T09:56:01.172Z,3.37
2023-01-29T10:00:14.169Z,2.80
2023-01-29T10:08:25.238Z,3.28
2023-01-29T10:12:47.227Z,2.80
2023-01-29T10:17:20.539Z,2.83
2023-01-29T10:21:34.141Z,3.17
2023-01-29T10:25:23.406Z,2.80
2023-01-29T10:29:45.322Z,2.80
2023-01-29T10:34:02.582Z,2.88
2023-01-29T10:37:45.869Z,2.33
2023-01-29T10:41:48.457Z,2.60
2023-01-29T10:46:23.169Z,2.40
2023-01-29T10:50:51.127Z,2.38
2023-01-29T11:00:08.905Z,2.75
2023-01-29T11:04:39.826Z,2.63
2023-01-29T12:14:23.061Z,2.30
2023-01-29T12:18:47.999Z,1.80
2023-01-29T12:46:55.311Z,2.20
2023-01-29T12:50:38.494Z,1.63
2023-01-29T12:54:45.589Z,1.97
2023-01-29T13:03:48.389Z,1.63
2023-01-29T13:07:42.317Z,1.58
2023-01-29T13:11:59.384Z,1.10
2023-01-29T13:19:58.997Z,1.20
2023-01-29T13:24:07.939Z,0.93
2023-01-29T13:27:51.657Z,1.40
2023-01-29T13:35:41.788Z,1.17
2023-01-29T13:40:10.214Z,0.85
2023-01-29T13:44:26.751Z,1.10
2023-01-29T14:06:02.046Z,1.00
2023-01-29T14:13:57.497Z,1.23
2023-01-29T14:21:51.513Z,0.95
2023-01-29T14:26:19.455Z,1.30
2023-01-29T14:34:24.365Z,1.17
2023-01-29T14:38:25.876Z,1.27
2023-01-29T14:46:34.366Z,0.63
2023-01-29T14:50:50.495Z,0.55
2023-01-29T14:54:38.476Z,0.52
2023-01-29T15:03:33.770Z,0.53
2023-01-29T15:16:41.155Z,0.70
2023-01-29T15:20:37.324Z,0.60
2023-01-29T15:29:33.176Z,0.63
2023-01-29T15:33:46.567Z,0.60
2023-01-29T15:37:33.757Z,1.00
2023-01-29T15:49:39.376Z,0.77
2023-01-29T15:57:40.613Z,1.20
2023-01-29T16:02:08.704Z,1.10
2023-01-29T16:06:36.512Z,1.38
2023-01-29T16:10:51.701Z,1.80
2023-01-29T16:14:34.592Z,1.42
2023-01-29T16:22:20.701Z,1.95
2023-01-29T16:30:28.093Z,2.00
2023-01-29T16:34:25.155Z,1.70
2023-01-29T16:38:56.906Z,1.80
2023-01-29T16:42:41.651Z,1.60
2023-01-29T16:47:11.979Z,2.08
2023-01-29T16:51:39.663Z,1.50
2023-01-29T16:55:56.125Z,1.70
2023-01-29T16:59:43.329Z,1.60
2023-01-29T17:03:55.808Z,2.08
2023-01-29T17:07:38.412Z,1.63
2023-01-29T17:11:32.054Z,2.40
2023-01-29T17:15:34.690Z,2.65
2023-01-29T17:19:20.931Z,3.00
2023-01-29T17:23:03.130Z,2.53
2023-01-29T17:26:45.187Z,2.90
2023-01-29T17:30:37.413Z,3.53
2023-01-29T17:34:19.910Z,2.97
2023-01-29T17:38:01.909Z,2.75
2023-01-29T17:41:55.513Z,2.45
2023-01-29T17:45:40.576Z,2.83
2023-01-29T17:49:32.644Z,2.53
2023-01-29T17:53:17.679Z,2.80
2023-01-29T17:57:00.942Z,3.13
2023-01-29T18:00:43.000Z,3.35
2023-01-29T18:04:25.146Z,3.85
2023-01-29T18:08:08.655Z,3.30
2023-01-29T18:11:51.088Z,3.00
2023-01-29T18:15:33.041Z,3.00
2023-01-29T18:19:27.388Z,3.28
2023-01-29T18:23:09.297Z,3.40
2023-01-29T18:26:51.426Z,3.05
2023-01-29T18:30:34.278Z,2.33
2023-01-29T18:34:16.379Z,2.40
2023-01-29T18:37:58.335Z,2.88
2023-01-29T18:41:40.418Z,3.00
2023-01-29T18:45:22.379Z,2.70
2023-01-29T18:49:05.336Z,3.30
2023-01-29T18:52:47.274Z,2.03
2023-01-29T18:56:29.446Z,1.77
2023-01-29T19:00:12.303Z,1.30
2023-01-29T19:03:54.390Z,1.60
2023-01-29T19:07:36.742Z,2.03
2023-01-29T19:11:18.747Z,2.30
2023-01-29T19:15:01.230Z,2.38
2023-01-29T19:18:43.792Z,2.80
2023-01-29T19:22:25.784Z,2.20
2023-01-29T19:26:08.199Z,2.15
2023-01-29T19:29:51.080Z,1.98
2023-01-29T19:33:33.017Z,2.22
2023-01-29T19:37:15.028Z,2.60
2023-01-29T19:40:59.039Z,2.30
2023-01-29T19:44:41.333Z,2.58
2023-01-29T19:48:23.768Z,2.87
2023-01-29T19:52:07.471Z,2.53
2023-01-29T19:55:58.385Z,2.70
2023-01-29T19:59:40.370Z,3.47
2023-01-29T20:03:22.397Z,2.65
2023-01-29T20:07:04.301Z,2.85
2023-01-29T20:10:46.936Z,2.40
2023-01-29T20:14:28.910Z,2.43
2023-01-29T20:18:12.083Z,2.67
2023-01-29T20:21:54.092Z,2.45
2023-01-29T20:25:37.503Z,1.67
2023-01-29T20:29:19.467Z,1.88
2023-01-29T20:33:02.769Z,1.90
2023-01-29T20:36:44.727Z,1.73
2023-01-29T20:40:26.996Z,1.85
2023-01-29T20:44:09.230Z,2.10
2023-01-29T20:47:51.333Z,1.75
2023-01-29T20:51:33.799Z,1.93
2023-01-29T20:55:16.137Z,1.65
2023-01-29T20:58:58.151Z,2.00
2023-01-29T21:02:40.107Z,1.57
2023-01-29T21:06:22.539Z,1.60
2023-01-29T21:10:04.789Z,1.98
2023-01-29T21:13:47.053Z,1.63
2023-01-29T21:17:29.176Z,2.25
2023-01-29T21:21:11.090Z,2.17
2023-01-29T21:24:53.053Z,2.17
2023-01-29T21:28:35.290Z,1.83
2023-01-29T21:32:18.364Z,1.80
2023-01-29T21:36:01.059Z,2.00
2023-01-29T21:39:43.311Z,1.53
2023-01-29T21:43:27.908Z,1.65
2023-01-29T21:47:12.973Z,1.92
2023-01-29T21:50:55.220Z,1.45
2023-01-29T21:54:40.101Z,2.03
2023-01-29T21:58:22.096Z,1.80
2023-01-29T22:02:04.412Z,1.50
2023-01-29T22:05:46.474Z,1.50
2023-01-29T22:09:28.388Z,1.30
2023-01-29T22:13:10.538Z,1.50
2023-01-29T22:16:52.562Z,2.00
2023-01-29T22:20:34.523Z,2.35
2023-01-29T22:24:16.533Z,2.75
2023-01-29T22:27:58.933Z,2.33
2023-01-29T22:31:40.970Z,2.72
2023-01-29T22:35:22.896Z,2.88
2023-01-29T22:39:06.372Z,2.90
2023-01-29T22:42:48.295Z,2.73
2023-01-29T22:46:30.349Z,2.72
2023-01-29T22:50:12.905Z,2.95
2023-01-29T22:53:56.651Z,2.80
2023-01-29T22:57:39.715Z,2.45
2023-01-29T23:01:24.898Z,2.40
2023-01-29T23:05:07.376Z,2.63
2023-01-29T23:08:51.119Z,2.50
2023-01-29T23:12:33.035Z,2.80
2023-01-29T23:16:16.437Z,2.22
2023-01-29T23:19:58.501Z,2.20
2023-01-29T23:23:40.522Z,1.98
2023-01-29T23:27:22.478Z,2.20
2023-01-29T23:31:04.606Z,2.10
2023-01-29T23:43:20.507Z,2.15
2023-01-29T23:47:16.324Z,2.17
2023-01-29T23:50:58.249Z,2.20
2023-01-29T23:54:40.176Z,2.00
2023-01-29T23:58:22.079Z,2.00
